Vue régionale

METAR et TAF

Mardi 14 août 2018 à 17h05

Visibilités horizontales observées à différents aéroports. Les observations (METAR) et prévisions aéronautiques (TAF) complètes sont disponibles en cliquant sur l’icône correspondante.

  • Luxemburg (ELLX)

    Taf: TAF ELLX 141100Z 1412/1518 26010KT 9999 BKN015 BECMG 1412/1414 BKN025 PROB40 TEMPO 1413/1418 27010G20KT SHRA BKN020CB BECMG 1419/1422 26005KT=

    Metar: METAR ELLX 141450Z 29009KT 9999 FEW025 BKN050 21/15 Q1018 NOSIG=

  • Spangdahlem (ETAD)

    Taf: TAF AMD ETAD 141316Z 1413/1517 24010G15KT 9999 SCT025 BKN050 QNH3001INS BECMG 1418/1419 VRB06KT 9999 BKN020 QNH3003INS BECMG 1423/1424 VRB06KT 6000 BR BKN015 QNH3007INS TEMPO 1500/1504 SCT008 BKN010 BECMG 1506/1507 23006KT 9999 NSW SCT015 BKN030 QNH3009INS TX23/1415Z TN12/1504Z=

    Metar: METAR ETAD 141456Z AUTO 23012KT 9999 FEW027 SCT035 BKN060 21/14 A3004 RMK AO2 SLP154 T02070141 51003 $=

  • Metz/Nancy (LFJL)

    Taf: TAF LFJL 141100Z 1412/1512 29010KT 9999 SCT025 BKN050 BECMG 1421/1424 VRB03KT=

    Metar: METAR LFJL 141430Z AUTO 33010KT 290V360 CAVOK 22/14 Q1018 NOSIG=

  • Saarbrücken/Intl (EDDR)

    Taf: TAF EDDR 141100Z 1412/1512 27010KT 9999 SCT030 BECMG 1419/1421 28005KT=

    Metar: METAR EDDR 141450Z 30011KT 270V330 9999 FEW029 SCT044 BKN270 22/13 Q1018 NOSIG=

  • Hahn (EDFH)

    Taf: TAF EDFH 141100Z 1412/1512 27007KT 9999 SCT010 BKN020=

    Metar: METAR EDFH 141450Z 27012KT 9999 FEW025 20/14 Q1017=

  • Ramstein (ETAR)

    Taf: TAF AMD ETAR 141424Z 1414/1516 28012KT 9999 SCT025 BKN050 QNH2997INS TEMPO 1414/1418 28015G20KT BECMG 1417/1418 29006KT 9999 SCT020 BKN040 QNH3000INS BECMG 1423/1424 VRB06KT 6000 BR BKN020 QNH3006INS BECMG 1505/1506 27006KT 9999 NSW SCT025 BKN050 QNH3012INS TX23/1415Z TN12/1503Z=

    Metar: METAR ETAR 141456Z AUTO 28013KT 9999 SCT050 24/14 A3004 RMK AO2 SLP168 T02350139 52009 $=

  • Nancy/Ochey (LFSO)

    Taf: TAF LFSO 141400Z 1415/1515 30010KT 9999 SCT045 BKN065 BECMG 1421/1423 VRB03KT=

    Metar: METAR LFSO 141430Z AUTO 30008KT 280V350 9999 SCT040 BKN047 BKN066 22/14 Q1018 NOSIG=

  • Liège Bierset (EBLG)

    Taf: TAF EBLG 141101Z 1412/1518 28010KT 9999 FEW020 SCT040 BECMG 1422/1424 22006KT TEMPO 1504/1509 BKN008 PROB30 TEMPO 1505/1508 4500 -DZ BR BKN003=

    Metar: METAR EBLG 141450Z 28006KT 9999 FEW025 20/16 Q1017 NOSIG=

  • Saint-Dizier (LFSI)

    Taf: TAF LFSI 141400Z 1415/1515 29010KT 9999 SCT035 BKN045=

    Metar: METAR LFSI 141430Z AUTO VRB04KT CAVOK 25/15 Q1018=

  • Maastricht/Zuid Limburg (EHBK)

    Taf: TAF EHBK 141112Z 1412/1518 29011KT 9999 BKN025 PROB40 TEMPO 1412/1420 6000 -SHRA BKN014 FEW020TCU BECMG 1421/1424 22004KT PROB30 1502/1507 4000 BR BKN009 BECMG 1509/1512 25010KT=

    Metar: METAR EHBK 141455Z AUTO 29005KT 240V350 9999 BKN024 BKN029 OVC037 20/16 Q1017 NOSIG=

  • Köln/Köln-Bonn (EDDK)

    Taf: TAF EDDK 141100Z 1412/1518 26012KT 9999 BKN035 BECMG 1417/1420 29007KT BECMG 1422/1501 VRB03KT BECMG 1509/1512 26006KT=

    Metar: METAR EDDK 141450Z 27020KT 9999 SHRA SCT039CB BKN065 21/15 Q1015 BECMG 27013KT NSW=

  • Charleroi (EBCI)

    Taf: TAF EBCI 141101Z 1412/1518 28010KT 9999 FEW020 SCT040 BECMG 1422/1424 22006KT TEMPO 1503/1508 BKN008 PROB30 TEMPO 1504/1507 4500 -DZ BR BKN003=

    Metar: METAR EBCI 141450Z 26006KT 230V300 9999 SCT030 21/13 Q1018 NOSIG=

  • Wiesbaden (ETOU)

    Taf: TAF ETOU 141111Z 1411/1517 28012KT 9999 SCT030 QNH2994INS BECMG 1418/1419 VRB06KT 9999 BKN025 QNH3006INS BECMG 1507/1508 27006KT 9999 FEW015 SCT030 QNH3000INS TX24/1415Z TN12/1504Z=

    Metar: METAR ETOU 141456Z AUTO 32007KT 9999 OVC075 24/13 A2999 RMK AO2 SLP153 T02410130 53005 $=

  • Karlsruhe/Baden-Baden (EDSB)

    Taf: TAF EDSB 141100Z 1412/1512 24005KT 9999 SCT040=

    Metar: METAR EDSB 141450Z 29006KT 240V350 9999 FEW045 SCT055 25/12 Q1016=

  • Chalons/Vatry (LFOK)

    Taf: TAF LFOK 141100Z 1412/1512 23006KT 9999 BKN025=

    Metar: METAR LFOK 141430Z AUTO 29008KT 250V320 9999 BKN042 BKN058 BKN076 24/15 Q1018 NOSIG=

  • Brüssel (EBBR)

    Taf: TAF EBBR 141101Z 1412/1518 28010KT 9999 FEW020 SCT040 BECMG 1421/1423 21008KT TEMPO 1504/1507 BKN006=

    Metar: METAR EBBR 141450Z 30011KT 260V320 9999 FEW027 22/14 Q1017 NOSIG=

  • Düsseldorf (EDDL)

    Taf: TAF EDDL 141100Z 1412/1518 27011KT 9999 BKN035 PROB30 TEMPO 1412/1415 29015G25KT BECMG 1419/1422 24004KT BECMG 1505/1508 23009KT=

    Metar: METAR EDDL 141450Z 30014KT 260V330 9999 FEW042TCU 25/13 Q1015 NOSIG=

  • Luxeuil (LFSX)

    Taf: TAF LFSX 141400Z 1415/1515 30012KT 9999 SCT045 BECMG 1418/1420 VRB02KT=

    Metar: METAR LFSX 141430Z AUTO 31007KT 260V340 CAVOK 25/12 Q1018 NOSIG=

  • Eindhoven (EHEH)

    Taf: TAF EHEH 141112Z 1412/1518 27011KT 9999 SCT040 BECMG 1419/1422 23005KT PROB30 1504/1507 5000 BR SCT007=

    Metar: METAR EHEH 141455Z AUTO 27006KT 220V350 9999 SCT047 OVC063 21/18 Q1016 REDZ BLU 28010KT 9999 SCT030 BKN045=

  • Niederrhein (EDLV)

    Taf: TAF EDLV 141100Z 1412/1512 28012KT 9999 BKN035 BECMG 1418/1421 25004KT PROB30 TEMPO 1504/1508 BKN012 BECMG 1507/1510 22009KT=

    Metar: METAR EDLV 141450Z 29011KT 250V340 CAVOK 24/13 Q1015=

  • Dortmund/Wickede (EDLW)

    Taf: TAF EDLW 141100Z 1412/1512 27010KT 9999 BKN035 BECMG 1418/1421 23004KT BECMG 1504/1508 24009KT=

    Metar: METAR EDLW 141450Z 27009KT 210V350 9999 FEW047 BKN057 23/13 Q1015=

  • Stuttgart/Echterdingen (EDDS)

    Taf: TAF EDDS 141100Z 1412/1512 28010KT CAVOK BECMG 1418/1421 24004KT=

    Metar: METAR EDDS 141450Z 29009KT 250V330 CAVOK 24/11 Q1016 NOSIG=

  • Basel-Mühlhausen (LFSB)

    Taf: TAF LFSB 141100Z 1412/1512 28005KT 9999 BKN045 PROB40 TEMPO 1412/1415 FEW045TCU BECMG 1417/1420 VRB02KT=

    Metar: METAR LFSB 141430Z 27007KT 250V310 9999 BKN053 26/12 Q1016 NOSIG=

  • Lille (LFQQ)

    Taf: TAF LFQQ 141100Z 1412/1518 26010KT 9999 BKN030 BECMG 1421/1424 20008KT BECMG 1500/1503 OVC005 BECMG 1507/1509 BKN020=

    Metar: METAR LFQQ 141430Z AUTO 28014KT 240V310 9999 FEW046 BKN054 BKN100 24/12 Q1017 NOSIG=

  • Paris/Charles de Gaulle (LFPG)

    Taf: TAF LFPG 141100Z 1412/1518 28010KT 9999 BKN035 TX27/1515Z TN16/1505Z PROB30 TEMPO 1501/1504 BKN012=

    Metar: METAR LFPG 141430Z 30009KT 260V340 9999 FEW043 SCT074 24/13 Q1018 NOSIG=

  • Paderborn/Lippstadt (EDLP)

    Taf: TAF EDLP 141100Z 1412/1512 26010KT 9999 BKN030 PROB30 TEMPO 1412/1416 28015G25KT BECMG 1417/1420 24005KT=

    Metar: METAR EDLP 141450Z 28008G19KT 240V320 9999 SCT042 SCT052 22/12 Q1014=

  • Paris/Le Bourget (LFPB)

    Taf: TAF LFPB 141100Z 1412/1512 28010KT 9999 BKN035=

    Metar: METAR LFPB 141430Z AUTO 30007KT 250V340 9999 BKN049 BKN060 BKN070 25/13 Q1018 NOSIG=

  • Rotterdam (EHRD)

    Taf: TAF EHRD 141036Z 1412/1518 28013KT 9999 SCT025 BECMG 1418/1421 22007KT CAVOK PROB40 1502/1507 5000 BR BKN005 BECMG 1508/1511 24013KT SCT020=

    Metar: METAR EHRD 141455Z AUTO 26005KT 240V300 9999 FEW017 SCT022 BKN033 19/17 Q1016 REDZ NOSIG=

  • Zürich/Kloten (LSZH)

    Taf: TAF LSZH 141425Z 1415/1521 24006KT 9999 FEW040 SCT050 TX24/1415Z TN13/1505Z TX27/1515Z PROB40 TEMPO 1415/1419 SHRA SCT040TCU BKN070 PROB30 TEMPO 1415/1419 29008KT BECMG 1506/1509 CAVOK PROB30 1503/1507 3000 BCFG SCT002 BECMG 1509/1511 9999 SCT060=

    Metar: METAR LSZH 141450Z 23007KT 180V270 9999 SCT040 FEW045CB SCT090 25/13 Q1017 NOSIG=

  • Oostende/Intl (EBOS)

    Taf: TAF EBOS 141101Z 1412/1518 26010KT 9999 FEW018 SCT035 TEMPO 1400/1404 BKN011 PROB30 TEMPO 1412/1415 BKN013=

    Metar: METAR EBOS 141450Z 27014KT 9999 FEW024 20/13 Q1018 NOSIG=

  • Paris/Orly (LFPO)

    Taf: TAF AMD LFPO 141113Z 1412/1518 30008KT 9999 BKN035 BECMG 1412/1414 CAVOK PROB40 TEMPO 1416/1419 32010G20KT TEMPO 1501/1508 BKN020 BECMG 1510/1512 CAVOK=

    Metar: METAR LFPO 141430Z 28008KT 240V340 9999 FEW046 SCT068 24/13 Q1019 NOSIG=

  • Beauvais (LFOB)

    Taf: TAF LFOB 141100Z 1412/1512 26008KT 9999 SCT020 BECMG 1422/1424 BKN013 TEMPO 1500/1503 BKN007 BECMG 1507/1510 SCT025=

    Metar: METAR LFOB 141430Z AUTO 28009KT 220V320 9999 FEW041 SCT062 24/13 Q1019 NOSIG=

  • Münster/Intl (EDDG)

    Taf: TAF EDDG 141100Z 1412/1512 26011KT 9999 BKN040 TEMPO 1412/1416 28015G25KT BECMG 1418/1421 24004KT PROB30 TEMPO 1504/1507 BKN013 BECMG 1508/1511 23009KT=

    Metar: METAR EDDG 141450Z 28014G25KT 260V340 9999 FEW040 BKN048 23/12 Q1014 NOSIG=

  • Illesheim (ETIK)

    Taf: TAF ETIK 141301Z 1413/1519 25012KT 9999 BKN045 QNH3000INS BECMG 1501/1502 27006KT 8000 BR BKN015 QNH3002INS BECMG 1509/1510 VRB06KT 9000 -SHRA BKN027 QNH3016INS BECMG 1512/1513 28009KT 9999 NSW BKN035 QNH3013INS TX24/1513Z TN15/1504Z=

    Metar: METAR ETIK 141456Z AUTO 28009KT 9999 BKN060 BKN075 21/13 A3003 RMK AO2 RAE10 SLP163 P0000 60000 T02080130 52012 $=

  • Duebendorf (LSMD)

    Taf: TAF LSMD 140925Z 1410/1516 32003KT 9999 SCT012 BKN060 PROB40 TEMPO 1410/1416 SHRA SCT025TCU BKN040 PROB30 TEMPO 1413/1416 30010KT BECMG 1503/1506 CAVOK PROB30 1503/1507 3000 BCFG SCT002 BECMG 1508/1511 9999 SCT060=

    Metar: METAR LSMD 141450Z AUTO 22003KT 120V290 9999NDV BKN040 BKN100 22/14 Q1017 RMK=

  • Villacoublay (LFPV)

    Taf: TAF LFPV 141400Z 1415/1515 32008KT 9999 SCT046=

    Metar: METAR LFPV 141430Z AUTO 30009KT 9999 BKN046 BKN052 BKN062 24/12 Q1019 NOSIG=

  • Payerne (LSMP)

    Taf: TAF LSMP 140925Z 1410/1516 VRB03KT 9999 FEW010 SCT070 PROB30 TEMPO 1410/1412 SHRA SCT050TCU BECMG 1419/1422 CAVOK=

    Metar: METAR LSMP 141450Z 33004KT 270V050 9999 SCT091 23/14 Q1018 RMK BLU+=

  • Amsterdam/Schipol (EHAM)

    Taf: TAF EHAM 141036Z 1412/1518 28013KT 9999 SCT025 BECMG 1418/1421 22007KT CAVOK PROB30 1502/1507 5000 BR SCT005 BKN009 BECMG 1508/1511 24013KT SCT020=

    Metar: METAR EHAM 141455Z 27011KT 240V310 9999 FEW020 BKN023 OVC045 20/14 Q1016 NOSIG=

  • Emmen (LSME)

    Taf: TAF LSME 140925Z 1410/1516 16004KT 9999 SCT018 SCT060 PROB40 TEMPO 1410/1418 SHRA SCT025TCU BKN040 PROB30 1503/1507 3000 BCFG SCT005=

    Metar: METAR LSME 141450Z AUTO /////KT ////NDV ////// 19/15 Q1018 RMK MIS=

  • Friedrichshafen (EDNY)

    Taf: TAF EDNY 141100Z 1412/1512 23005KT 9999 SCT040 PROB30 TEMPO 1412/1416 23015G25KT TSRA BKN040CB BECMG 1417/1419 VRB02KT BECMG 1509/1511 24005KT=

    Metar: METAR EDNY 141450Z 19007KT 9999 FEW045 23/14 Q1017=

  • Alpnach (LSMA)

    Taf: TAF LSMA 140925Z 1410/1516 VRB03KT 9999 FEW006 SCT025 BKN045 PROB40 TEMPO 1410/1418 4000 SHRA SCT025TCU PROB30 1504/1508 3000 BCFG BECMG 1509/1511 05008KT=

    Metar: METAR LSMA 141450Z AUTO VRB01KT 9999NDV FEW045 BKN093 19/16 Q1018 RESHRA RMK=

  • Meiringen (LSMM)

    Taf: TAF LSMM 140925Z 1410/1516 VRB03KT 9999 FEW011 BKN035 PROB40 TEMPO 1410/1418 4000 SHRA SCT025TCU PROB30 1504/1508 3000 BCFG BECMG 1510/1512 04008KT=

    Metar: METAR LSMM 141450Z 05011KT 020V100 9999 FEW026 SCT065 BKN100 20/15 Q1019 RMK BLU=

  • Nürnberg (EDDN)

    Taf: TAF EDDN 141100Z 1412/1512 27010KT 9999 SCT030 TEMPO 1412/1417 28015G25KT BECMG 1417/1419 27005KT BECMG 1420/1422 VRB03KT BECMG 1506/1508 27005KT=

    Metar: METAR EDDN 141450Z 27015KT 220V310 9999 SCT045TCU BKN085 23/12 Q1015 NOSIG=

  • Rouen (LFOP)

    Taf: TAF LFOP 141100Z 1412/1512 29010KT 9999 SCT030 BECMG 1418/1420 BKN012 BECMG 1500/1503 OVC005 BECMG 1507/1510 SCT025=

    Metar: METAR LFOP 141430Z AUTO 29010KT 250V330 9999 FEW038 BKN054 22/13 Q1019 NOSIG=

  • Evreux (LFOE)

    Taf: TAF LFOE 141400Z 1415/1515 29008KT 9999 SCT045 TEMPO 1415/1419 30010G20KT BECMG 1421/1424 BKN015 TEMPO 1502/1506 BKN008 BECMG 1507/1510 BKN025=

    Metar: METAR LFOE 141430Z AUTO 28011KT 9999 FEW042 SCT050 22/12 Q1019 NOSIG=

  • Erfurt/Bindersleben (EDDE)

    Taf: TAF EDDE 141100Z 1412/1512 26015KT 9999 BKN040 TEMPO 1412/1415 26015G25KT PROB30 TEMPO 1412/1416 SHRA BKN030TCU BECMG 1416/1418 27005KT=

    Metar: METAR EDDE 141450Z 29013KT 9999 SCT036 BKN060 21/12 Q1014 NOSIG=